sensor_id;sensor_type;location;lat;lon;timestamp;P1;durP1;ratioP1;P2;durP2;ratioP2
15142;SDS011;7672;50.834;6.286;2023-07-16T00:00:45;4.23;;;1.93;;
15142;SDS011;7672;50.834;6.286;2023-07-16T00:03:12;3.97;;;2.10;;
15142;SDS011;7672;50.834;6.286;2023-07-16T00:05:40;3.97;;;2.07;;
15142;SDS011;7672;50.834;6.286;2023-07-16T00:08:07;4.83;;;2.50;;
15142;SDS011;7672;50.834;6.286;2023-07-16T00:10:35;6.20;;;2.07;;
15142;SDS011;7672;50.834;6.286;2023-07-16T00:13:03;2.83;;;2.00;;
15142;SDS011;7672;50.834;6.286;2023-07-16T00:15:30;6.53;;;2.00;;
15142;SDS011;7672;50.834;6.286;2023-07-16T00:17:58;4.97;;;2.37;;
15142;SDS011;7672;50.834;6.286;2023-07-16T00:20:25;4.00;;;2.30;;
15142;SDS011;7672;50.834;6.286;2023-07-16T00:22:53;6.30;;;2.30;;
15142;SDS011;7672;50.834;6.286;2023-07-16T00:25:20;3.57;;;2.00;;
15142;SDS011;7672;50.834;6.286;2023-07-16T00:27:47;6.00;;;2.00;;
15142;SDS011;7672;50.834;6.286;2023-07-16T00:30:15;4.30;;;1.80;;
15142;SDS011;7672;50.834;6.286;2023-07-16T00:32:42;4.10;;;1.97;;
15142;SDS011;7672;50.834;6.286;2023-07-16T00:35:09;4.13;;;2.10;;
15142;SDS011;7672;50.834;6.286;2023-07-16T00:37:36;4.73;;;1.90;;
15142;SDS011;7672;50.834;6.286;2023-07-16T00:40:06;3.37;;;2.23;;
15142;SDS011;7672;50.834;6.286;2023-07-16T00:42:34;6.83;;;1.90;;
15142;SDS011;7672;50.834;6.286;2023-07-16T00:45:01;2.67;;;1.90;;
15142;SDS011;7672;50.834;6.286;2023-07-16T00:47:35;3.40;;;2.20;;
15142;SDS011;7672;50.834;6.286;2023-07-16T00:50:02;7.47;;;1.90;;
15142;SDS011;7672;50.834;6.286;2023-07-16T00:52:29;5.67;;;2.63;;
15142;SDS011;7672;50.834;6.286;2023-07-16T00:54:59;4.83;;;2.13;;
15142;SDS011;7672;50.834;6.286;2023-07-16T00:57:26;5.27;;;2.27;;
15142;SDS011;7672;50.834;6.286;2023-07-16T00:59:54;3.87;;;2.20;;
15142;SDS011;7672;50.834;6.286;2023-07-16T01:02:22;4.90;;;2.07;;
15142;SDS011;7672;50.834;6.286;2023-07-16T01:04:49;4.00;;;2.33;;
15142;SDS011;7672;50.834;6.286;2023-07-16T01:07:16;3.70;;;2.20;;
15142;SDS011;7672;50.834;6.286;2023-07-16T01:09:49;3.20;;;2.10;;
15142;SDS011;7672;50.834;6.286;2023-07-16T01:12:17;3.43;;;2.07;;
15142;SDS011;7672;50.834;6.286;2023-07-16T01:14:50;3.07;;;1.93;;
15142;SDS011;7672;50.834;6.286;2023-07-16T01:17:18;4.33;;;2.17;;
15142;SDS011;7672;50.834;6.286;2023-07-16T01:19:46;4.07;;;2.03;;
15142;SDS011;7672;50.834;6.286;2023-07-16T01:30:47;2.83;;;2.00;;
15142;SDS011;7672;50.834;6.286;2023-07-16T01:33:18;3.23;;;1.90;;
15142;SDS011;7672;50.834;6.286;2023-07-16T01:35:47;6.77;;;2.43;;
15142;SDS011;7672;50.834;6.286;2023-07-16T01:38:17;4.60;;;2.20;;
15142;SDS011;7672;50.834;6.286;2023-07-16T01:40:47;6.17;;;2.20;;
15142;SDS011;7672;50.834;6.286;2023-07-16T01:43:14;5.77;;;2.30;;
15142;SDS011;7672;50.834;6.286;2023-07-16T01:45:41;2.43;;;1.70;;
15142;SDS011;7672;50.834;6.286;2023-07-16T01:51:02;5.90;;;2.13;;
15142;SDS011;7672;50.834;6.286;2023-07-16T01:53:30;3.77;;;1.87;;
15142;SDS011;7672;50.834;6.286;2023-07-16T01:55:58;3.90;;;1.93;;
15142;SDS011;7672;50.834;6.286;2023-07-16T01:58:27;6.70;;;2.17;;
15142;SDS011;7672;50.834;6.286;2023-07-16T02:00:55;7.27;;;2.07;;
15142;SDS011;7672;50.834;6.286;2023-07-16T02:03:22;3.37;;;1.83;;
15142;SDS011;7672;50.834;6.286;2023-07-16T02:05:50;4.97;;;2.20;;
15142;SDS011;7672;50.834;6.286;2023-07-16T02:08:17;7.90;;;1.80;;
15142;SDS011;7672;50.834;6.286;2023-07-16T02:10:46;5.67;;;2.00;;
15142;SDS011;7672;50.834;6.286;2023-07-16T02:13:14;5.23;;;2.00;;
15142;SDS011;7672;50.834;6.286;2023-07-16T02:15:42;6.10;;;2.07;;
15142;SDS011;7672;50.834;6.286;2023-07-16T02:18:10;3.53;;;2.10;;
15142;SDS011;7672;50.834;6.286;2023-07-16T02:20:37;4.10;;;2.20;;
15142;SDS011;7672;50.834;6.286;2023-07-16T02:23:04;3.13;;;2.20;;
15142;SDS011;7672;50.834;6.286;2023-07-16T02:25:32;3.60;;;2.17;;
15142;SDS011;7672;50.834;6.286;2023-07-16T02:27:59;4.60;;;2.03;;
15142;SDS011;7672;50.834;6.286;2023-07-16T02:30:29;4.03;;;2.00;;
15142;SDS011;7672;50.834;6.286;2023-07-16T02:32:56;6.97;;;2.27;;
15142;SDS011;7672;50.834;6.286;2023-07-16T02:35:23;4.57;;;2.10;;
15142;SDS011;7672;50.834;6.286;2023-07-16T02:37:50;6.47;;;2.17;;
15142;SDS011;7672;50.834;6.286;2023-07-16T02:40:18;6.20;;;2.57;;
15142;SDS011;7672;50.834;6.286;2023-07-16T02:42:45;2.97;;;2.00;;
15142;SDS011;7672;50.834;6.286;2023-07-16T02:45:12;7.67;;;1.80;;
15142;SDS011;7672;50.834;6.286;2023-07-16T02:47:39;8.03;;;2.30;;
15142;SDS011;7672;50.834;6.286;2023-07-16T02:50:06;4.07;;;2.20;;
15142;SDS011;7672;50.834;6.286;2023-07-16T02:52:33;9.80;;;2.37;;
15142;SDS011;7672;50.834;6.286;2023-07-16T02:55:01;6.20;;;2.27;;
15142;SDS011;7672;50.834;6.286;2023-07-16T02:57:28;4.87;;;2.37;;
15142;SDS011;7672;50.834;6.286;2023-07-16T02:59:55;5.67;;;2.80;;
15142;SDS011;7672;50.834;6.286;2023-07-16T03:02:22;3.37;;;2.10;;
15142;SDS011;7672;50.834;6.286;2023-07-16T03:04:50;6.67;;;2.20;;
15142;SDS011;7672;50.834;6.286;2023-07-16T03:07:18;4.70;;;2.53;;
15142;SDS011;7672;50.834;6.286;2023-07-16T03:09:45;9.53;;;2.20;;
15142;SDS011;7672;50.834;6.286;2023-07-16T03:12:12;7.00;;;2.27;;
15142;SDS011;7672;50.834;6.286;2023-07-16T03:14:40;6.23;;;2.30;;
15142;SDS011;7672;50.834;6.286;2023-07-16T03:17:07;4.33;;;2.50;;
15142;SDS011;7672;50.834;6.286;2023-07-16T03:19:34;4.53;;;2.70;;
15142;SDS011;7672;50.834;6.286;2023-07-16T03:22:01;9.77;;;2.90;;
15142;SDS011;7672;50.834;6.286;2023-07-16T03:24:29;5.93;;;2.20;;
15142;SDS011;7672;50.834;6.286;2023-07-16T03:26:56;7.27;;;2.67;;
15142;SDS011;7672;50.834;6.286;2023-07-16T03:29:43;7.93;;;2.40;;
15142;SDS011;7672;50.834;6.286;2023-07-16T03:32:13;7.33;;;2.80;;
15142;SDS011;7672;50.834;6.286;2023-07-16T03:34:40;8.87;;;2.80;;
15142;SDS011;7672;50.834;6.286;2023-07-16T03:37:07;7.70;;;3.13;;
15142;SDS011;7672;50.834;6.286;2023-07-16T03:39:34;5.17;;;2.43;;
15142;SDS011;7672;50.834;6.286;2023-07-16T03:42:01;11.23;;;3.33;;
15142;SDS011;7672;50.834;6.286;2023-07-16T03:44:29;5.60;;;2.37;;
15142;SDS011;7672;50.834;6.286;2023-07-16T03:46:57;6.40;;;2.57;;
15142;SDS011;7672;50.834;6.286;2023-07-16T03:49:25;7.93;;;2.97;;
15142;SDS011;7672;50.834;6.286;2023-07-16T03:51:52;6.23;;;2.87;;
15142;SDS011;7672;50.834;6.286;2023-07-16T03:54:20;7.97;;;2.60;;
15142;SDS011;7672;50.834;6.286;2023-07-16T03:56:47;5.97;;;2.70;;
15142;SDS011;7672;50.834;6.286;2023-07-16T03:59:14;5.57;;;2.70;;
15142;SDS011;7672;50.834;6.286;2023-07-16T04:01:41;7.97;;;2.83;;
15142;SDS011;7672;50.834;6.286;2023-07-16T04:04:09;5.90;;;3.00;;
15142;SDS011;7672;50.834;6.286;2023-07-16T04:06:36;7.23;;;2.83;;
15142;SDS011;7672;50.834;6.286;2023-07-16T04:09:03;5.43;;;3.10;;
15142;SDS011;7672;50.834;6.286;2023-07-16T04:11:30;4.70;;;2.80;;
15142;SDS011;7672;50.834;6.286;2023-07-16T04:13:57;6.63;;;3.13;;
15142;SDS011;7672;50.834;6.286;2023-07-16T04:16:24;6.33;;;3.40;;
15142;SDS011;7672;50.834;6.286;2023-07-16T04:18:51;10.27;;;2.70;;
15142;SDS011;7672;50.834;6.286;2023-07-16T04:21:18;5.40;;;2.90;;
15142;SDS011;7672;50.834;6.286;2023-07-16T04:23:45;6.17;;;3.50;;
15142;SDS011;7672;50.834;6.286;2023-07-16T04:26:12;6.37;;;3.23;;
15142;SDS011;7672;50.834;6.286;2023-07-16T04:28:40;9.07;;;3.43;;
15142;SDS011;7672;50.834;6.286;2023-07-16T04:31:07;10.10;;;3.77;;
15142;SDS011;7672;50.834;6.286;2023-07-16T04:33:34;7.30;;;3.43;;
15142;SDS011;7672;50.834;6.286;2023-07-16T04:36:01;8.30;;;3.77;;
15142;SDS011;7672;50.834;6.286;2023-07-16T04:38:29;7.00;;;3.30;;
15142;SDS011;7672;50.834;6.286;2023-07-16T04:40:56;7.30;;;3.13;;
15142;SDS011;7672;50.834;6.286;2023-07-16T04:43:23;5.40;;;2.93;;
15142;SDS011;7672;50.834;6.286;2023-07-16T04:45:49;5.30;;;3.10;;
15142;SDS011;7672;50.834;6.286;2023-07-16T04:48:17;5.73;;;3.17;;
15142;SDS011;7672;50.834;6.286;2023-07-16T04:50:44;6.17;;;3.67;;
15142;SDS011;7672;50.834;6.286;2023-07-16T04:53:11;5.05;;;3.28;;
15142;SDS011;7672;50.834;6.286;2023-07-16T04:55:38;5.43;;;3.40;;
15142;SDS011;7672;50.834;6.286;2023-07-16T04:58:06;9.15;;;4.30;;
15142;SDS011;7672;50.834;6.286;2023-07-16T05:00:33;8.77;;;3.85;;
15142;SDS011;7672;50.834;6.286;2023-07-16T05:03:00;6.30;;;4.13;;
15142;SDS011;7672;50.834;6.286;2023-07-16T05:05:28;7.70;;;3.90;;
15142;SDS011;7672;50.834;6.286;2023-07-16T05:07:55;9.00;;;3.50;;
15142;SDS011;7672;50.834;6.286;2023-07-16T05:10:22;7.68;;;3.60;;
15142;SDS011;7672;50.834;6.286;2023-07-16T05:12:49;6.15;;;3.80;;
15142;SDS011;7672;50.834;6.286;2023-07-16T05:15:16;7.88;;;3.60;;
15142;SDS011;7672;50.834;6.286;2023-07-16T05:17:43;6.45;;;3.67;;
15142;SDS011;7672;50.834;6.286;2023-07-16T05:20:11;6.53;;;4.00;;
15142;SDS011;7672;50.834;6.286;2023-07-16T05:22:38;8.70;;;3.22;;
15142;SDS011;7672;50.834;6.286;2023-07-16T05:25:05;6.28;;;3.97;;
15142;SDS011;7672;50.834;6.286;2023-07-16T05:27:32;9.65;;;4.13;;
15142;SDS011;7672;50.834;6.286;2023-07-16T05:29:59;7.03;;;4.22;;
15142;SDS011;7672;50.834;6.286;2023-07-16T05:32:26;6.20;;;4.10;;
15142;SDS011;7672;50.834;6.286;2023-07-16T05:34:53;4.95;;;4.00;;
15142;SDS011;7672;50.834;6.286;2023-07-16T05:37:20;7.18;;;4.35;;
15142;SDS011;7672;50.834;6.286;2023-07-16T05:39:47;7.57;;;4.47;;
15142;SDS011;7672;50.834;6.286;2023-07-16T05:42:14;7.30;;;4.63;;
15142;SDS011;7672;50.834;6.286;2023-07-16T05:44:41;4.55;;;4.03;;
15142;SDS011;7672;50.834;6.286;2023-07-16T05:47:10;9.52;;;4.43;;
15142;SDS011;7672;50.834;6.286;2023-07-16T05:49:37;7.25;;;4.75;;
15142;SDS011;7672;50.834;6.286;2023-07-16T05:52:04;8.57;;;4.22;;
15142;SDS011;7672;50.834;6.286;2023-07-16T05:54:33;8.50;;;5.35;;
15142;SDS011;7672;50.834;6.286;2023-07-16T05:57:00;6.60;;;5.05;;
15142;SDS011;7672;50.834;6.286;2023-07-16T05:59:27;6.55;;;4.55;;
15142;SDS011;7672;50.834;6.286;2023-07-16T06:01:54;7.47;;;5.13;;
15142;SDS011;7672;50.834;6.286;2023-07-16T06:04:24;8.48;;;5.03;;
15142;SDS011;7672;50.834;6.286;2023-07-16T06:06:51;11.23;;;5.15;;
15142;SDS011;7672;50.834;6.286;2023-07-16T06:09:18;7.32;;;5.50;;
15142;SDS011;7672;50.834;6.286;2023-07-16T06:11:46;8.48;;;5.80;;
15142;SDS011;7672;50.834;6.286;2023-07-16T06:14:14;8.77;;;5.22;;
15142;SDS011;7672;50.834;6.286;2023-07-16T06:16:42;10.55;;;5.80;;
15142;SDS011;7672;50.834;6.286;2023-07-16T06:19:09;8.93;;;5.28;;
15142;SDS011;7672;50.834;6.286;2023-07-16T06:21:36;8.40;;;5.63;;
15142;SDS011;7672;50.834;6.286;2023-07-16T06:24:03;8.13;;;5.95;;
15142;SDS011;7672;50.834;6.286;2023-07-16T06:26:30;8.40;;;6.25;;
15142;SDS011;7672;50.834;6.286;2023-07-16T06:28:58;7.35;;;5.40;;
15142;SDS011;7672;50.834;6.286;2023-07-16T06:31:25;12.50;;;6.00;;
15142;SDS011;7672;50.834;6.286;2023-07-16T06:33:52;7.47;;;5.85;;
15142;SDS011;7672;50.834;6.286;2023-07-16T06:36:19;9.23;;;5.70;;
15142;SDS011;7672;50.834;6.286;2023-07-16T06:38:47;11.43;;;5.97;;
15142;SDS011;7672;50.834;6.286;2023-07-16T06:41:14;9.02;;;5.80;;
15142;SDS011;7672;50.834;6.286;2023-07-16T06:43:41;9.32;;;5.32;;
15142;SDS011;7672;50.834;6.286;2023-07-16T06:46:08;8.45;;;5.95;;
15142;SDS011;7672;50.834;6.286;2023-07-16T06:48:35;9.32;;;5.72;;
15142;SDS011;7672;50.834;6.286;2023-07-16T06:51:02;7.55;;;5.45;;
15142;SDS011;7672;50.834;6.286;2023-07-16T06:53:29;8.63;;;5.60;;
15142;SDS011;7672;50.834;6.286;2023-07-16T06:55:56;7.45;;;5.90;;
15142;SDS011;7672;50.834;6.286;2023-07-16T06:58:30;8.88;;;5.38;;
15142;SDS011;7672;50.834;6.286;2023-07-16T07:01:00;9.07;;;5.80;;
15142;SDS011;7672;50.834;6.286;2023-07-16T07:03:27;7.35;;;5.40;;
15142;SDS011;7672;50.834;6.286;2023-07-16T07:05:54;9.02;;;6.25;;
15142;SDS011;7672;50.834;6.286;2023-07-16T07:08:22;9.43;;;6.03;;
15142;SDS011;7672;50.834;6.286;2023-07-16T07:10:49;7.00;;;5.28;;
15142;SDS011;7672;50.834;6.286;2023-07-16T07:13:16;8.07;;;6.47;;
15142;SDS011;7672;50.834;6.286;2023-07-16T07:15:43;8.40;;;6.63;;
15142;SDS011;7672;50.834;6.286;2023-07-16T07:18:10;6.03;;;5.40;;
15142;SDS011;7672;50.834;6.286;2023-07-16T07:20:38;9.77;;;5.50;;
15142;SDS011;7672;50.834;6.286;2023-07-16T07:23:07;6.90;;;6.00;;
15142;SDS011;7672;50.834;6.286;2023-07-16T07:25:34;7.05;;;5.80;;
15142;SDS011;7672;50.834;6.286;2023-07-16T07:28:01;9.20;;;6.25;;
15142;SDS011;7672;50.834;6.286;2023-07-16T07:30:29;6.47;;;5.80;;
15142;SDS011;7672;50.834;6.286;2023-07-16T07:32:56;9.80;;;5.97;;
15142;SDS011;7672;50.834;6.286;2023-07-16T07:35:23;6.88;;;5.30;;
15142;SDS011;7672;50.834;6.286;2023-07-16T07:37:50;8.18;;;5.22;;
15142;SDS011;7672;50.834;6.286;2023-07-16T07:40:18;9.07;;;5.63;;
15142;SDS011;7672;50.834;6.286;2023-07-16T07:42:45;5.75;;;5.18;;
15142;SDS011;7672;50.834;6.286;2023-07-16T07:45:12;6.65;;;5.30;;
15142;SDS011;7672;50.834;6.286;2023-07-16T07:47:40;5.25;;;4.75;;
15142;SDS011;7672;50.834;6.286;2023-07-16T07:50:08;10.68;;;5.28;;
15142;SDS011;7672;50.834;6.286;2023-07-16T07:52:35;5.80;;;5.22;;
15142;SDS011;7672;50.834;6.286;2023-07-16T07:55:03;5.05;;;4.28;;
15142;SDS011;7672;50.834;6.286;2023-07-16T07:57:30;5.72;;;5.00;;
15142;SDS011;7672;50.834;6.286;2023-07-16T07:59:57;5.05;;;4.55;;
15142;SDS011;7672;50.834;6.286;2023-07-16T08:02:24;5.65;;;4.53;;
15142;SDS011;7672;50.834;6.286;2023-07-16T08:04:52;8.90;;;5.22;;
15142;SDS011;7672;50.834;6.286;2023-07-16T08:07:22;6.53;;;4.72;;
15142;SDS011;7672;50.834;6.286;2023-07-16T08:09:49;7.55;;;4.15;;
15142;SDS011;7672;50.834;6.286;2023-07-16T08:12:16;5.07;;;4.50;;
15142;SDS011;7672;50.834;6.286;2023-07-16T08:14:43;5.75;;;4.40;;
15142;SDS011;7672;50.834;6.286;2023-07-16T08:17:10;5.70;;;4.28;;
15142;SDS011;7672;50.834;6.286;2023-07-16T08:19:38;6.20;;;4.60;;
15142;SDS011;7672;50.834;6.286;2023-07-16T08:22:05;5.97;;;4.65;;
15142;SDS011;7672;50.834;6.286;2023-07-16T08:24:32;6.43;;;4.88;;
15142;SDS011;7672;50.834;6.286;2023-07-16T08:26:59;5.45;;;4.75;;
15142;SDS011;7672;50.834;6.286;2023-07-16T08:29:26;5.63;;;3.70;;
15142;SDS011;7672;50.834;6.286;2023-07-16T08:31:53;6.85;;;4.63;;
15142;SDS011;7672;50.834;6.286;2023-07-16T08:34:20;6.40;;;4.30;;
15142;SDS011;7672;50.834;6.286;2023-07-16T08:36:47;6.57;;;4.53;;
15142;SDS011;7672;50.834;6.286;2023-07-16T08:39:14;5.32;;;3.78;;
15142;SDS011;7672;50.834;6.286;2023-07-16T08:41:47;5.53;;;4.47;;
15142;SDS011;7672;50.834;6.286;2023-07-16T08:44:14;6.05;;;4.22;;
15142;SDS011;7672;50.834;6.286;2023-07-16T08:46:41;7.13;;;4.60;;
15142;SDS011;7672;50.834;6.286;2023-07-16T08:49:09;6.60;;;4.13;;
15142;SDS011;7672;50.834;6.286;2023-07-16T08:51:38;4.82;;;3.83;;
15142;SDS011;7672;50.834;6.286;2023-07-16T08:54:06;8.30;;;3.85;;
15142;SDS011;7672;50.834;6.286;2023-07-16T08:56:33;7.35;;;3.88;;
15142;SDS011;7672;50.834;6.286;2023-07-16T08:59:00;4.25;;;3.85;;
15142;SDS011;7672;50.834;6.286;2023-07-16T09:01:28;4.63;;;3.50;;
15142;SDS011;7672;50.834;6.286;2023-07-16T09:03:55;4.65;;;3.67;;
15142;SDS011;7672;50.834;6.286;2023-07-16T09:06:23;4.57;;;3.80;;
15142;SDS011;7672;50.834;6.286;2023-07-16T09:08:51;4.95;;;3.97;;
15142;SDS011;7672;50.834;6.286;2023-07-16T09:11:18;8.65;;;4.25;;
15142;SDS011;7672;50.834;6.286;2023-07-16T09:13:48;6.00;;;4.43;;
15142;SDS011;7672;50.834;6.286;2023-07-16T09:16:19;5.45;;;3.97;;
15142;SDS011;7672;50.834;6.286;2023-07-16T09:18:47;5.07;;;3.80;;
15142;SDS011;7672;50.834;6.286;2023-07-16T09:21:15;6.18;;;3.92;;
15142;SDS011;7672;50.834;6.286;2023-07-16T09:23:42;7.63;;;3.78;;
15142;SDS011;7672;50.834;6.286;2023-07-16T09:26:09;7.10;;;4.10;;
15142;SDS011;7672;50.834;6.286;2023-07-16T09:28:36;4.18;;;3.58;;
15142;SDS011;7672;50.834;6.286;2023-07-16T09:31:07;4.18;;;3.78;;
15142;SDS011;7672;50.834;6.286;2023-07-16T09:33:34;6.63;;;4.10;;
15142;SDS011;7672;50.834;6.286;2023-07-16T09:36:02;6.65;;;3.90;;
15142;SDS011;7672;50.834;6.286;2023-07-16T09:38:30;4.28;;;3.83;;
15142;SDS011;7672;50.834;6.286;2023-07-16T09:40:59;6.22;;;3.67;;
15142;SDS011;7672;50.834;6.286;2023-07-16T09:43:29;3.70;;;3.30;;
15142;SDS011;7672;50.834;6.286;2023-07-16T09:45:56;4.53;;;3.45;;
15142;SDS011;7672;50.834;6.286;2023-07-16T09:48:23;4.45;;;3.78;;
15142;SDS011;7672;50.834;6.286;2023-07-16T09:50:51;4.10;;;3.45;;
15142;SDS011;7672;50.834;6.286;2023-07-16T09:53:20;4.88;;;3.53;;
15142;SDS011;7672;50.834;6.286;2023-07-16T09:55:48;4.97;;;3.83;;
15142;SDS011;7672;50.834;6.286;2023-07-16T09:58:19;5.18;;;3.70;;
15142;SDS011;7672;50.834;6.286;2023-07-16T10:00:49;5.35;;;4.07;;
15142;SDS011;7672;50.834;6.286;2023-07-16T10:03:17;4.15;;;3.72;;
15142;SDS011;7672;50.834;6.286;2023-07-16T10:05:45;4.30;;;3.90;;
15142;SDS011;7672;50.834;6.286;2023-07-16T10:08:16;5.60;;;3.67;;
15142;SDS011;7672;50.834;6.286;2023-07-16T10:13:23;4.47;;;3.95;;
15142;SDS011;7672;50.834;6.286;2023-07-16T10:15:57;4.00;;;3.60;;
15142;SDS011;7672;50.834;6.286;2023-07-16T10:18:28;4.40;;;3.65;;
15142;SDS011;7672;50.834;6.286;2023-07-16T10:21:05;5.38;;;3.70;;
15142;SDS011;7672;50.834;6.286;2023-07-16T10:23:41;6.57;;;3.75;;
15142;SDS011;7672;50.834;6.286;2023-07-16T10:26:11;3.55;;;3.25;;
15142;SDS011;7672;50.834;6.286;2023-07-16T10:28:45;5.35;;;3.53;;
15142;SDS011;7672;50.834;6.286;2023-07-16T10:31:17;5.05;;;3.45;;
15142;SDS011;7672;50.834;6.286;2023-07-16T10:34:23;3.50;;;3.20;;
15142;SDS011;7672;50.834;6.286;2023-07-16T10:36:42;4.68;;;3.30;;
15142;SDS011;7672;50.834;6.286;2023-07-16T10:39:10;4.53;;;3.58;;
15142;SDS011;7672;50.834;6.286;2023-07-16T10:41:37;4.85;;;3.55;;
15142;SDS011;7672;50.834;6.286;2023-07-16T10:44:04;3.72;;;3.42;;
15142;SDS011;7672;50.834;6.286;2023-07-16T10:46:36;5.78;;;3.80;;
15142;SDS011;7672;50.834;6.286;2023-07-16T10:49:03;4.00;;;3.60;;
15142;SDS011;7672;50.834;6.286;2023-07-16T10:51:30;5.20;;;3.38;;
15142;SDS011;7672;50.834;6.286;2023-07-16T10:53:57;3.42;;;3.00;;
15142;SDS011;7672;50.834;6.286;2023-07-16T10:56:25;5.30;;;3.22;;
15142;SDS011;7672;50.834;6.286;2023-07-16T10:58:52;4.82;;;3.33;;
15142;SDS011;7672;50.834;6.286;2023-07-16T11:01:20;4.72;;;4.00;;
15142;SDS011;7672;50.834;6.286;2023-07-16T11:03:47;6.35;;;3.13;;
15142;SDS011;7672;50.834;6.286;2023-07-16T11:06:15;3.80;;;3.40;;
15142;SDS011;7672;50.834;6.286;2023-07-16T11:08:45;4.85;;;3.35;;
15142;SDS011;7672;50.834;6.286;2023-07-16T11:11:13;3.80;;;3.35;;
15142;SDS011;7672;50.834;6.286;2023-07-16T11:13:40;5.82;;;3.75;;
15142;SDS011;7672;50.834;6.286;2023-07-16T11:16:07;4.70;;;4.03;;
15142;SDS011;7672;50.834;6.286;2023-07-16T11:18:35;4.72;;;4.20;;
15142;SDS011;7672;50.834;6.286;2023-07-16T11:21:03;4.97;;;4.20;;
15142;SDS011;7672;50.834;6.286;2023-07-16T11:23:33;4.70;;;4.25;;
15142;SDS011;7672;50.834;6.286;2023-07-16T11:26:03;5.40;;;3.88;;
15142;SDS011;7672;50.834;6.286;2023-07-16T11:28:40;4.60;;;3.83;;
15142;SDS011;7672;50.834;6.286;2023-07-16T11:31:15;5.07;;;4.00;;
15142;SDS011;7672;50.834;6.286;2023-07-16T11:33:44;4.40;;;3.95;;
15142;SDS011;7672;50.834;6.286;2023-07-16T11:36:12;4.63;;;3.70;;
15142;SDS011;7672;50.834;6.286;2023-07-16T11:38:40;5.20;;;3.80;;
15142;SDS011;7672;50.834;6.286;2023-07-16T11:41:07;5.93;;;4.38;;
15142;SDS011;7672;50.834;6.286;2023-07-16T11:43:35;4.68;;;4.22;;
15142;SDS011;7672;50.834;6.286;2023-07-16T11:46:14;5.47;;;4.38;;
15142;SDS011;7672;50.834;6.286;2023-07-16T11:48:44;4.22;;;3.78;;
15142;SDS011;7672;50.834;6.286;2023-07-16T11:51:11;4.38;;;3.67;;
15142;SDS011;7672;50.834;6.286;2023-07-16T11:53:38;6.35;;;4.15;;
15142;SDS011;7672;50.834;6.286;2023-07-16T11:56:05;4.30;;;3.90;;
15142;SDS011;7672;50.834;6.286;2023-07-16T11:58:33;5.18;;;4.15;;
15142;SDS011;7672;50.834;6.286;2023-07-16T12:01:00;4.15;;;3.70;;
15142;SDS011;7672;50.834;6.286;2023-07-16T12:03:27;6.70;;;4.13;;
15142;SDS011;7672;50.834;6.286;2023-07-16T12:05:54;5.88;;;3.45;;
15142;SDS011;7672;50.834;6.286;2023-07-16T12:08:21;4.40;;;4.00;;
15142;SDS011;7672;50.834;6.286;2023-07-16T12:10:48;4.50;;;3.67;;
15142;SDS011;7672;50.834;6.286;2023-07-16T12:13:15;4.53;;;3.80;;
15142;SDS011;7672;50.834;6.286;2023-07-16T12:15:43;4.20;;;3.78;;
15142;SDS011;7672;50.834;6.286;2023-07-16T12:18:10;5.07;;;3.83;;
15142;SDS011;7672;50.834;6.286;2023-07-16T12:20:37;5.03;;;3.83;;
15142;SDS011;7672;50.834;6.286;2023-07-16T12:23:04;6.55;;;4.35;;
15142;SDS011;7672;50.834;6.286;2023-07-16T12:25:32;7.30;;;4.07;;
15142;SDS011;7672;50.834;6.286;2023-07-16T12:28:00;5.75;;;4.30;;
15142;SDS011;7672;50.834;6.286;2023-07-16T12:30:28;8.77;;;7.97;;
15142;SDS011;7672;50.834;6.286;2023-07-16T12:32:55;6.80;;;4.10;;
15142;SDS011;7672;50.834;6.286;2023-07-16T12:35:23;4.85;;;3.30;;
15142;SDS011;7672;50.834;6.286;2023-07-16T12:37:50;4.78;;;3.83;;
15142;SDS011;7672;50.834;6.286;2023-07-16T12:40:17;4.80;;;3.47;;
15142;SDS011;7672;50.834;6.286;2023-07-16T12:42:44;4.85;;;3.53;;
15142;SDS011;7672;50.834;6.286;2023-07-16T12:45:11;5.00;;;3.25;;
15142;SDS011;7672;50.834;6.286;2023-07-16T12:47:38;3.67;;;2.85;;
15142;SDS011;7672;50.834;6.286;2023-07-16T12:50:05;3.35;;;2.83;;
15142;SDS011;7672;50.834;6.286;2023-07-16T12:52:33;4.57;;;3.40;;
15142;SDS011;7672;50.834;6.286;2023-07-16T12:55:01;4.32;;;3.28;;
15142;SDS011;7672;50.834;6.286;2023-07-16T12:57:28;3.63;;;2.97;;
15142;SDS011;7672;50.834;6.286;2023-07-16T12:59:55;4.88;;;3.13;;
15142;SDS011;7672;50.834;6.286;2023-07-16T13:02:22;4.30;;;3.10;;
15142;SDS011;7672;50.834;6.286;2023-07-16T13:04:49;4.05;;;3.40;;
15142;SDS011;7672;50.834;6.286;2023-07-16T13:07:16;3.08;;;2.78;;
15142;SDS011;7672;50.834;6.286;2023-07-16T13:09:43;4.38;;;3.38;;
15142;SDS011;7672;50.834;6.286;2023-07-16T13:12:10;6.05;;;2.95;;
15142;SDS011;7672;50.834;6.286;2023-07-16T13:14:37;4.60;;;3.42;;
15142;SDS011;7672;50.834;6.286;2023-07-16T13:17:04;6.40;;;3.30;;
15142;SDS011;7672;50.834;6.286;2023-07-16T13:19:31;7.53;;;4.15;;
15142;SDS011;7672;50.834;6.286;2023-07-16T13:21:58;5.28;;;3.65;;
15142;SDS011;7672;50.834;6.286;2023-07-16T13:24:25;4.60;;;3.10;;
15142;SDS011;7672;50.834;6.286;2023-07-16T13:26:52;4.45;;;3.35;;
15142;SDS011;7672;50.834;6.286;2023-07-16T13:29:20;4.35;;;3.10;;
15142;SDS011;7672;50.834;6.286;2023-07-16T13:31:47;5.22;;;3.60;;
15142;SDS011;7672;50.834;6.286;2023-07-16T13:34:14;5.25;;;3.78;;
15142;SDS011;7672;50.834;6.286;2023-07-16T13:36:41;4.35;;;3.95;;
15142;SDS011;7672;50.834;6.286;2023-07-16T13:39:08;4.10;;;3.65;;
15142;SDS011;7672;50.834;6.286;2023-07-16T13:41:36;4.60;;;3.70;;
15142;SDS011;7672;50.834;6.286;2023-07-16T13:44:03;3.97;;;3.55;;
15142;SDS011;7672;50.834;6.286;2023-07-16T13:46:30;4.25;;;3.38;;
15142;SDS011;7672;50.834;6.286;2023-07-16T13:48:58;3.92;;;3.47;;
15142;SDS011;7672;50.834;6.286;2023-07-16T13:51:26;4.80;;;3.88;;
15142;SDS011;7672;50.834;6.286;2023-07-16T13:53:53;5.72;;;3.60;;
15142;SDS011;7672;50.834;6.286;2023-07-16T13:56:20;4.03;;;2.92;;
15142;SDS011;7672;50.834;6.286;2023-07-16T13:58:48;4.35;;;3.55;;
15142;SDS011;7672;50.834;6.286;2023-07-16T14:01:14;5.20;;;3.80;;
15142;SDS011;7672;50.834;6.286;2023-07-16T14:03:43;3.72;;;3.20;;
15142;SDS011;7672;50.834;6.286;2023-07-16T14:06:10;6.00;;;3.28;;
15142;SDS011;7672;50.834;6.286;2023-07-16T14:08:37;4.32;;;3.47;;
15142;SDS011;7672;50.834;6.286;2023-07-16T14:11:05;9.48;;;7.38;;
15142;SDS011;7672;50.834;6.286;2023-07-16T14:13:32;5.38;;;3.63;;
15142;SDS011;7672;50.834;6.286;2023-07-16T14:15:59;5.05;;;3.50;;
15142;SDS011;7672;50.834;6.286;2023-07-16T14:18:26;4.88;;;4.03;;
15142;SDS011;7672;50.834;6.286;2023-07-16T14:20:53;4.68;;;3.25;;
15142;SDS011;7672;50.834;6.286;2023-07-16T14:23:20;5.47;;;3.83;;
15142;SDS011;7672;50.834;6.286;2023-07-16T14:25:47;4.35;;;3.78;;
15142;SDS011;7672;50.834;6.286;2023-07-16T14:28:14;4.75;;;3.67;;
15142;SDS011;7672;50.834;6.286;2023-07-16T14:30:41;5.25;;;3.47;;
15142;SDS011;7672;50.834;6.286;2023-07-16T14:33:08;5.18;;;4.10;;
15142;SDS011;7672;50.834;6.286;2023-07-16T14:35:35;4.60;;;3.65;;
15142;SDS011;7672;50.834;6.286;2023-07-16T14:38:04;4.55;;;3.60;;
15142;SDS011;7672;50.834;6.286;2023-07-16T14:40:31;3.90;;;3.47;;
15142;SDS011;7672;50.834;6.286;2023-07-16T14:42:58;4.18;;;3.00;;
15142;SDS011;7672;50.834;6.286;2023-07-16T14:45:27;5.55;;;3.35;;
15142;SDS011;7672;50.834;6.286;2023-07-16T14:47:54;3.40;;;3.10;;
15142;SDS011;7672;50.834;6.286;2023-07-16T14:50:21;4.57;;;3.05;;
15142;SDS011;7672;50.834;6.286;2023-07-16T14:52:49;4.90;;;3.45;;
15142;SDS011;7672;50.834;6.286;2023-07-16T14:55:17;3.95;;;3.15;;
15142;SDS011;7672;50.834;6.286;2023-07-16T14:57:44;4.00;;;3.28;;
15142;SDS011;7672;50.834;6.286;2023-07-16T15:00:11;4.65;;;3.40;;
15142;SDS011;7672;50.834;6.286;2023-07-16T15:02:40;4.82;;;3.53;;
15142;SDS011;7672;50.834;6.286;2023-07-16T15:05:09;4.25;;;3.50;;
15142;SDS011;7672;50.834;6.286;2023-07-16T15:07:36;5.20;;;3.40;;
15142;SDS011;7672;50.834;6.286;2023-07-16T15:10:04;6.40;;;3.80;;
15142;SDS011;7672;50.834;6.286;2023-07-16T15:12:32;5.60;;;3.05;;
15142;SDS011;7672;50.834;6.286;2023-07-16T15:14:59;4.43;;;3.53;;
15142;SDS011;7672;50.834;6.286;2023-07-16T15:17:26;4.18;;;3.42;;